Time;durP1;ratioP1;P1;durP2;ratioP2;P2;SDS_P1;SDS_P2;PMS_P1;PMS_P2;Temp;Humidity;BMP_temperature;BMP_pressure;BME280_temperature;BME280_humidity;BME280_pressure;Samples;Min_cycle;Max_cycle;Signal;HPM_P1;HPM_P2
2023/09/25 00:00:46;;;;;;;2.17;1.60;;;;;;;21.54;100.00;101596.16;2081088;28;20259;-69
2023/09/25 00:01:47;;;;;;;7.53;1.60;;;;;;;21.56;100.00;101598.50;2081249;28;20460;-69
2023/09/25 00:02:47;;;;;;;2.40;1.60;;;;;;;21.20;100.00;101548.09;2081462;28;20631;-69
2023/09/25 00:03:48;;;;;;;3.20;1.80;;;;;;;21.57;100.00;101603.66;2081137;28;20189;-69
2023/09/25 00:04:49;;;;;;;2.43;1.57;;;;;;;21.57;100.00;101609.31;2081463;28;20180;-69
2023/09/25 00:05:49;;;;;;;3.27;1.40;;;;;;;21.61;100.00;101604.25;2081588;28;20195;-69
2023/09/25 00:06:50;;;;;;;4.43;1.80;;;;;;;21.64;100.00;101596.88;2081225;28;20196;-69
2023/09/25 00:07:51;;;;;;;6.20;2.07;;;;;;;21.62;100.00;101588.88;2080984;28;20384;-69
2023/09/25 00:08:52;;;;;;;7.10;1.97;;;;;;;21.61;100.00;101589.38;2080382;28;20608;-69
2023/09/25 00:09:52;;;;;;;3.67;1.60;;;;;;;21.31;100.00;101543.44;2081228;28;20260;-69
2023/09/25 00:10:53;;;;;;;3.00;1.70;;;;;;;21.55;100.00;101580.78;2080918;28;20189;-69
2023/09/25 00:11:53;;;;;;;3.53;1.63;;;;;;;21.55;100.00;101580.78;2081189;28;20636;-69
2023/09/25 00:12:53;;;;;;;6.77;1.87;;;;;;;21.55;100.00;101589.25;2081036;28;20195;-69
2023/09/25 00:13:54;;;;;;;4.30;1.70;;;;;;;21.56;100.00;101585.19;2081562;28;20181;-69
2023/09/25 00:14:54;;;;;;;4.00;1.80;;;;;;;21.56;100.00;101579.56;2081357;28;20215;-69
2023/09/25 00:15:59;;;;;;;4.53;2.10;;;;;;;21.56;100.00;101581.59;2080468;28;20204;-69
2023/09/25 00:17:00;;;;;;;6.93;1.90;;;;;;;21.58;100.00;101585.47;2081399;28;20191;-69
2023/09/25 00:18:00;;;;;;;3.00;1.60;;;;;;;21.62;100.00;101582.47;2080934;28;20197;-68
2023/09/25 00:19:01;;;;;;;2.60;1.67;;;;;;;21.61;100.00;101584.50;2080999;28;20192;-69
2023/09/25 00:20:04;;;;;;;4.70;1.80;;;;;;;21.30;100.00;101543.94;2081271;28;20577;-69
2023/09/25 00:21:04;;;;;;;3.33;1.70;;;;;;;21.64;100.00;101591.22;2081148;28;20439;-69
2023/09/25 00:22:04;;;;;;;4.63;1.87;;;;;;;21.65;100.00;101587.13;2080474;28;20212;-69
2023/09/25 00:23:05;;;;;;;3.43;1.80;;;;;;;21.67;100.00;101587.41;2081535;28;20249;-69
2023/09/25 00:24:06;;;;;;;3.80;1.53;;;;;;;21.57;100.00;101574.66;2081069;28;20188;-69
2023/09/25 00:25:08;;;;;;;3.03;1.53;;;;;;;21.61;100.00;101576.06;2081297;28;20197;-69
2023/09/25 00:26:08;;;;;;;5.97;1.70;;;;;;;21.31;100.00;101523.72;2080684;28;20286;-69
2023/09/25 00:27:09;;;;;;;6.50;2.00;;;;;;;21.68;100.00;101580.50;2077181;28;20186;-69
2023/09/25 00:28:10;;;;;;;4.57;1.63;;;;;;;21.68;100.00;101586.97;2075829;28;20197;-69
2023/09/25 00:29:11;;;;;;;3.63;1.63;;;;;;;21.71;100.00;101593.69;2080967;28;20342;-69
2023/09/25 00:30:13;;;;;;;4.10;1.77;;;;;;;21.70;100.00;101597.78;2080526;28;20264;-69
2023/09/25 00:31:14;;;;;;;5.20;2.53;;;;;;;21.71;100.00;101600.13;2081722;28;20177;-69
2023/09/25 00:32:14;;;;;;;4.37;1.77;;;;;;;21.70;100.00;101603.41;2080662;28;20196;-69
2023/09/25 00:33:15;;;;;;;5.03;1.50;;;;;;;21.68;100.00;101597.44;2081030;28;20203;-69
2023/09/25 00:34:15;;;;;;;5.73;1.83;;;;;;;21.66;100.00;101599.97;2081015;28;20192;-68
2023/09/25 00:35:17;;;;;;;4.47;1.80;;;;;;;21.67;100.00;101604.34;2080547;28;20286;-69
2023/09/25 00:36:18;;;;;;;3.27;1.43;;;;;;;21.67;100.00;101605.13;2080121;28;20216;-68
2023/09/25 00:37:19;;;;;;;3.83;1.50;;;;;;;21.68;100.00;101606.72;2080125;28;20809;-68
2023/09/25 00:38:20;;;;;;;3.20;1.70;;;;;;;21.69;100.00;101608.28;2074694;28;20189;-68
2023/09/25 00:39:20;;;;;;;4.20;1.50;;;;;;;21.69;100.00;101604.69;2081548;28;20224;-68
2023/09/25 00:40:24;;;;;;;2.73;1.90;;;;;;;21.70;100.00;101614.69;2080677;28;20251;-68
2023/09/25 00:41:24;;;;;;;2.83;1.20;;;;;;;21.70;100.00;101618.28;2081146;28;20251;-69
2023/09/25 00:42:26;;;;;;;3.20;1.60;;;;;;;21.69;100.00;101608.28;2080609;28;20283;-69
2023/09/25 00:43:27;;;;;;;2.47;1.30;;;;;;;21.68;100.00;101600.25;2080846;28;20219;-69
2023/09/25 00:44:27;;;;;;;5.70;1.60;;;;;;;21.69;100.00;101604.69;2080655;28;20201;-69
2023/09/25 00:45:29;;;;;;;4.47;1.73;;;;;;;21.69;100.00;101605.44;2080864;28;20717;-69
2023/09/25 00:46:31;;;;;;;3.00;1.53;;;;;;;21.74;100.00;101601.94;2080661;28;20176;-69
2023/09/25 00:47:31;;;;;;;5.17;1.93;;;;;;;21.71;100.00;101600.13;2080834;28;20411;-69
2023/09/25 00:48:33;;;;;;;3.57;1.97;;;;;;;21.67;100.00;101613.59;2081267;28;20189;-69
2023/09/25 00:49:34;;;;;;;5.50;1.70;;;;;;;21.65;100.00;101607.66;2080873;28;20201;-69
2023/09/25 00:50:34;;;;;;;3.87;1.50;;;;;;;21.55;100.00;101597.72;2080762;28;20201;-69
2023/09/25 00:51:36;;;;;;;4.90;1.70;;;;;;;21.37;100.00;101569.69;2081161;28;20200;-69
2023/09/25 00:52:44;;;;;;;2.40;1.40;;;;;;;21.61;100.00;101609.91;2079680;28;20300;-69
2023/09/25 00:53:47;;;;;;;10.07;2.00;;;;;;;21.61;100.00;101612.72;2077991;28;20587;-69
2023/09/25 00:54:47;;;;;;;4.40;1.60;;;;;;;21.62;100.00;101616.31;2080984;28;20177;-69
2023/09/25 00:55:48;;;;;;;7.03;1.70;;;;;;;21.62;100.00;101619.91;2080633;28;20693;-69
2023/09/25 00:56:50;;;;;;;7.40;1.50;;;;;;;21.63;100.00;101610.19;2077934;28;20217;-69
2023/09/25 00:57:51;;;;;;;6.00;1.90;;;;;;;21.62;100.00;101605.81;2081107;28;20177;-69
2023/09/25 00:58:52;;;;;;;4.93;1.67;;;;;;;21.60;100.00;101599.84;2073216;28;20193;-69
2023/09/25 00:59:53;;;;;;;6.03;1.60;;;;;;;21.59;100.00;101592.66;2079809;28;20189;-69
2023/09/25 01:00:53;;;;;;;2.67;1.53;;;;;;;21.58;100.00;101601.59;2080428;28;20197;-69
2023/09/25 01:01:54;;;;;;;2.60;1.20;;;;;;;21.36;100.00;101567.34;2080562;28;20683;-69
2023/09/25 01:02:55;;;;;;;4.13;1.57;;;;;;;21.54;100.00;101598.22;2080780;28;20196;-69
2023/09/25 01:03:56;;;;;;;2.43;1.30;;;;;;;21.53;100.00;101597.44;2075068;28;20577;-69
2023/09/25 01:05:00;;;;;;;5.23;1.60;;;;;;;21.50;100.00;101598.38;2080844;28;20268;-69
2023/09/25 01:06:01;;;;;;;2.37;1.20;;;;;;;21.55;100.00;101597.72;2073020;28;20332;-69
2023/09/25 01:07:02;;;;;;;3.13;1.67;;;;;;;21.54;100.00;101593.34;2081123;28;20323;-69
2023/09/25 01:08:03;;;;;;;4.73;1.33;;;;;;;21.56;100.00;101592.88;2080739;28;20279;-69
2023/09/25 01:09:04;;;;;;;4.47;1.53;;;;;;;21.55;100.00;101594.91;2079681;28;20297;-69
2023/09/25 01:10:16;;;;;;;2.50;1.40;;;;;;;21.53;100.00;101597.44;2079595;28;20596;-68
2023/09/25 01:11:16;;;;;;;3.37;1.60;;;;;;;21.51;100.00;101594.31;2081136;28;20558;-68
2023/09/25 01:12:17;;;;;;;2.47;1.67;;;;;;;21.59;100.00;101614.47;2080604;28;20200;-68
2023/09/25 01:13:17;;;;;;;3.07;1.63;;;;;;;21.59;100.00;101608.84;2080798;28;20200;-68
2023/09/25 01:14:18;;;;;;;5.00;1.37;;;;;;;21.54;100.00;101598.97;2080487;28;20264;-68
2023/09/25 01:15:19;;;;;;;4.03;1.30;;;;;;;21.60;100.00;101618.84;2075797;28;20200;-68
2023/09/25 01:16:22;;;;;;;3.97;1.47;;;;;;;21.58;100.00;101621.34;2080065;28;20576;-68
2023/09/25 01:17:22;;;;;;;4.63;1.77;;;;;;;21.56;100.00;101627.50;2081323;28;20185;-68
2023/09/25 01:18:23;;;;;;;2.97;1.27;;;;;;;21.56;100.00;101623.88;2080513;28;20213;-68
2023/09/25 01:19:23;;;;;;;5.17;1.63;;;;;;;21.55;100.00;101623.09;2080219;28;20196;-68
2023/09/25 01:20:24;;;;;;;3.07;1.70;;;;;;;21.57;100.00;101616.97;2079856;28;20669;-68
2023/09/25 01:21:25;;;;;;;4.13;1.70;;;;;;;21.58;100.00;101619.31;2080464;28;20193;-69
2023/09/25 01:22:26;;;;;;;4.87;1.30;;;;;;;21.58;100.00;101624.97;2080738;28;20238;-69
2023/09/25 01:23:26;;;;;;;5.77;1.67;;;;;;;21.19;100.00;101569.09;2080657;28;20185;-69
2023/09/25 01:24:27;;;;;;;4.03;1.50;;;;;;;21.55;100.00;101625.91;2080304;28;20181;-68
2023/09/25 01:25:27;;;;;;;4.30;1.53;;;;;;;21.53;100.00;101627.66;2073001;28;20619;-68
2023/09/25 01:26:28;;;;;;;2.50;1.57;;;;;;;21.45;100.00;101627.25;2078942;28;20189;-68
2023/09/25 01:27:29;;;;;;;2.37;1.40;;;;;;;21.42;100.00;101621.81;2079816;28;20197;-68
2023/09/25 01:28:29;;;;;;;1.57;1.37;;;;;;;21.45;100.00;101629.31;2080452;28;20482;-68
2023/09/25 01:29:30;;;;;;;4.30;1.47;;;;;;;21.43;100.00;101626.97;2080826;28;20671;-68
2023/09/25 01:30:31;;;;;;;4.03;1.50;;;;;;;21.50;100.00;101634.28;2080309;28;20179;-68
2023/09/25 01:31:31;;;;;;;3.37;1.80;;;;;;;21.48;100.00;101617.84;2080575;28;20666;-69
2023/09/25 01:32:32;;;;;;;2.90;1.50;;;;;;;21.51;100.00;101624.56;2080233;28;20173;-69
2023/09/25 01:33:32;;;;;;;3.87;1.60;;;;;;;21.54;100.00;101627.19;2072796;28;20572;-68
2023/09/25 01:34:34;;;;;;;4.37;1.50;;;;;;;21.54;100.00;101624.38;2079643;28;20169;-69
2023/09/25 01:35:34;;;;;;;2.80;1.40;;;;;;;21.53;100.00;101614.34;2079391;28;20197;-69
2023/09/25 01:36:35;;;;;;;4.80;1.87;;;;;;;21.58;100.00;101621.34;2080136;28;20228;-69
2023/09/25 01:37:35;;;;;;;1.70;1.30;;;;;;;21.59;100.00;101622.94;2080705;28;20193;-69
2023/09/25 01:38:36;;;;;;;3.67;1.50;;;;;;;21.60;100.00;101633.72;2080192;28;20265;-69
2023/09/25 01:39:36;;;;;;;2.30;1.40;;;;;;;21.62;100.00;101630.41;2080577;28;20646;-69
2023/09/25 01:40:37;;;;;;;4.50;1.60;;;;;;;21.63;100.00;101631.97;2079875;28;20188;-69
2023/09/25 01:41:37;;;;;;;4.00;1.17;;;;;;;21.51;100.00;101608.44;2080888;28;20216;-69
2023/09/25 01:42:37;;;;;;;5.53;1.40;;;;;;;21.44;100.00;101600.34;2080537;28;20191;-69
2023/09/25 01:43:38;;;;;;;2.77;1.53;;;;;;;21.66;100.00;101637.44;2080528;28;20288;-69
2023/09/25 01:44:38;;;;;;;2.00;1.37;;;;;;;21.62;100.00;101630.41;2080642;28;20192;-69
2023/09/25 01:45:39;;;;;;;3.50;1.83;;;;;;;21.63;100.00;101629.16;2080442;28;20204;-69
2023/09/25 01:46:40;;;;;;;2.77;1.60;;;;;;;21.62;100.00;101634.03;2080238;28;20177;-68
2023/09/25 01:47:42;;;;;;;4.50;1.70;;;;;;;21.29;100.00;101579.78;2080347;28;20650;-68
2023/09/25 01:48:42;;;;;;;3.03;1.70;;;;;;;21.64;100.00;101630.72;2075543;28;20212;-68
2023/09/25 01:49:43;;;;;;;4.33;1.80;;;;;;;21.61;100.00;101632.47;2080397;28;20543;-68
2023/09/25 01:50:44;;;;;;;2.77;1.60;;;;;;;21.61;100.00;101624.00;2079358;28;20284;-68
2023/09/25 01:51:44;;;;;;;3.17;1.40;;;;;;;21.51;100.00;101613.28;2080671;28;20233;-68
2023/09/25 01:52:49;;;;;;;2.13;1.60;;;;;;;21.61;100.00;101632.47;2080635;28;20189;-68
2023/09/25 01:53:50;;;;;;;2.77;1.80;;;;;;;21.62;100.00;101628.38;2080468;28;20200;-68
2023/09/25 01:54:51;;;;;;;3.00;1.60;;;;;;;21.63;100.00;101631.97;2080217;28;20538;-68
2023/09/25 01:55:51;;;;;;;6.23;1.73;;;;;;;21.61;100.00;101623.22;2080338;28;20431;-68
2023/09/25 01:56:52;;;;;;;2.33;1.63;;;;;;;21.62;100.00;101634.03;2080488;28;20181;-68
2023/09/25 01:57:52;;;;;;;5.70;1.73;;;;;;;21.63;100.00;101634.78;2080780;28;20211;-68
2023/09/25 01:58:53;;;;;;;3.17;1.77;;;;;;;21.64;100.00;101636.38;2077626;28;20186;-68
2023/09/25 01:59:53;;;;;;;3.37;1.70;;;;;;;21.63;100.00;101638.41;2079976;28;20642;-68
2023/09/25 02:00:53;;;;;;;3.50;1.90;;;;;;;21.66;100.00;101637.44;2079914;28;20197;-68
2023/09/25 02:01:54;;;;;;;2.93;1.60;;;;;;;21.65;100.00;101637.91;2079486;28;20744;-68
2023/09/25 02:02:54;;;;;;;3.80;1.47;;;;;;;21.68;100.00;101634.94;2076430;28;20188;-68
2023/09/25 02:03:55;;;;;;;2.10;1.80;;;;;;;21.69;100.00;101642.13;2073553;28;20185;-68
2023/09/25 02:04:55;;;;;;;5.20;1.47;;;;;;;21.63;100.00;101620.69;2080268;28;20177;-68
2023/09/25 02:05:56;;;;;;;3.50;1.80;;;;;;;21.42;100.00;101602.06;2080714;28;20250;-68
2023/09/25 02:06:57;;;;;;;4.43;1.80;;;;;;;21.67;100.00;101641.81;2080721;28;20197;-68
2023/09/25 02:07:57;;;;;;;3.60;2.00;;;;;;;21.69;100.00;101639.31;2080049;28;20197;-68
2023/09/25 02:08:58;;;;;;;6.83;1.87;;;;;;;21.66;100.00;101642.28;2080008;28;20697;-68
2023/09/25 02:09:59;;;;;;;3.47;1.70;;;;;;;21.40;100.00;101598.97;2080309;28;20189;-68
2023/09/25 02:10:59;;;;;;;4.37;2.90;;;;;;;21.64;100.00;101645.59;2080298;28;20197;-68
2023/09/25 02:12:00;;;;;;;3.33;1.97;;;;;;;21.61;100.00;101640.94;2080391;28;20287;-68
2023/09/25 02:13:00;;;;;;;2.53;1.70;;;;;;;21.66;100.00;101645.91;2080092;28;20251;-69
2023/09/25 02:14:01;;;;;;;4.87;1.93;;;;;;;21.65;100.00;101649.97;2080744;28;20205;-69
2023/09/25 02:15:04;;;;;;;2.30;1.40;;;;;;;21.63;100.00;101644.03;2080407;28;20205;-68
2023/09/25 02:16:04;;;;;;;5.57;2.07;;;;;;;21.65;100.00;101652.03;2080136;28;20184;-68
2023/09/25 02:17:06;;;;;;;5.87;1.80;;;;;;;21.65;100.00;101644.31;2080255;28;20459;-68
2023/09/25 02:18:08;;;;;;;2.60;1.77;;;;;;;21.49;100.00;101627.09;2079656;28;20227;-68
2023/09/25 02:19:08;;;;;;;2.37;1.80;;;;;;;21.43;100.00;101629.00;2080542;28;20886;-68
2023/09/25 02:20:20;;;;;;;2.40;1.77;;;;;;;21.51;100.00;101644.31;2080028;28;20419;-68
2023/09/25 02:21:21;;;;;;;3.10;1.90;;;;;;;21.48;100.00;101646.06;2080825;28;20208;-68
2023/09/25 02:22:21;;;;;;;2.30;1.90;;;;;;;21.42;100.00;101644.38;2080105;28;20650;-68
2023/09/25 02:23:22;;;;;;;3.20;1.87;;;;;;;21.52;100.00;101651.50;2080419;28;20184;-68
2023/09/25 02:24:22;;;;;;;2.23;1.90;;;;;;;21.46;100.00;101642.16;2080596;28;20565;-68
2023/09/25 02:25:23;;;;;;;2.93;1.70;;;;;;;21.55;100.00;101650.53;2080564;28;20193;-68
2023/09/25 02:26:23;;;;;;;3.27;1.87;;;;;;;21.52;100.00;101646.66;2079808;28;20638;-68
2023/09/25 02:27:24;;;;;;;2.70;1.67;;;;;;;21.49;100.00;101656.06;2080330;28;20204;-68
2023/09/25 02:28:24;;;;;;;2.50;1.87;;;;;;;21.48;100.00;101657.34;2080294;28;20283;-68
2023/09/25 02:29:24;;;;;;;3.57;2.20;;;;;;;21.40;100.00;101641.28;2080153;28;20251;-68
2023/09/25 02:30:25;;;;;;;2.37;1.73;;;;;;;21.45;100.00;101654.69;2079841;28;20185;-68
2023/09/25 02:31:25;;;;;;;3.67;1.93;;;;;;;21.35;100.00;101620.13;2080376;28;20185;-68
2023/09/25 02:32:26;;;;;;;3.30;2.03;;;;;;;21.55;100.00;101661.81;2080258;28;20192;-68
2023/09/25 02:33:26;;;;;;;2.90;1.87;;;;;;;21.52;100.00;101659.97;2080105;28;20185;-68
2023/09/25 02:34:27;;;;;;;2.60;1.70;;;;;;;21.50;100.00;101651.97;2080312;28;20588;-68
2023/09/25 02:35:27;;;;;;;3.40;1.83;;;;;;;21.54;100.00;101652.56;2080155;28;20196;-68
2023/09/25 02:36:28;;;;;;;1.97;1.60;;;;;;;21.57;100.00;101659.28;2080153;28;20266;-68
2023/09/25 02:37:32;;;;;;;2.60;1.83;;;;;;;21.60;100.00;101663.97;2079880;28;20201;-68
2023/09/25 02:38:32;;;;;;;2.63;1.70;;;;;;;21.62;100.00;101661.44;2080107;28;20626;-68
2023/09/25 02:39:33;;;;;;;4.43;1.80;;;;;;;21.61;100.00;101657.84;2080285;28;20250;-68
2023/09/25 02:40:33;;;;;;;4.00;1.70;;;;;;;21.55;100.00;101656.19;2080369;28;20181;-68
2023/09/25 02:41:33;;;;;;;3.83;2.00;;;;;;;21.50;100.00;101646.34;2080139;28;20188;-68
2023/09/25 02:42:34;;;;;;;4.00;2.13;;;;;;;21.60;100.00;101661.91;2076486;28;20260;-68
2023/09/25 02:43:34;;;;;;;3.43;1.80;;;;;;;21.38;100.00;101621.22;2080483;28;20216;-68
2023/09/25 02:44:35;;;;;;;5.10;2.03;;;;;;;21.64;100.00;101662.50;2080045;28;20216;-68
2023/09/25 02:45:35;;;;;;;5.53;1.80;;;;;;;21.67;100.00;101666.41;2080090;28;20227;-68
2023/09/25 02:46:36;;;;;;;2.97;2.00;;;;;;;21.68;100.00;101665.97;2079407;28;20177;-68
2023/09/25 02:47:36;;;;;;;2.73;1.77;;;;;;;21.69;100.00;101661.88;2080096;28;20614;-68
2023/09/25 02:48:37;;;;;;;2.57;1.83;;;;;;;21.70;100.00;101666.25;2080541;28;20177;-68
2023/09/25 02:49:37;;;;;;;3.10;1.90;;;;;;;21.70;100.00;101666.25;2080106;28;20287;-68
2023/09/25 02:50:38;;;;;;;2.63;1.87;;;;;;;21.70;100.00;101665.50;2079697;28;20224;-68
2023/09/25 02:51:39;;;;;;;3.70;1.80;;;;;;;21.65;100.00;101660.50;2080386;28;20235;-68
2023/09/25 02:52:39;;;;;;;1.90;1.60;;;;;;;21.71;100.00;101670.66;2079881;28;20295;-68
2023/09/25 02:53:39;;;;;;;2.23;1.63;;;;;;;21.71;100.00;101669.84;2080161;28;20201;-68
2023/09/25 02:54:40;;;;;;;2.80;1.67;;;;;;;21.73;100.00;101675.78;2079949;28;20181;-68
2023/09/25 02:55:41;;;;;;;8.03;2.00;;;;;;;21.72;100.00;101671.41;2079998;28;20562;-68
2023/09/25 02:56:41;;;;;;;2.97;1.60;;;;;;;21.73;100.00;101684.25;2080466;28;20250;-68
2023/09/25 02:57:42;;;;;;;4.00;1.80;;;;;;;21.69;100.00;101687.25;2080220;28;20694;-68
2023/09/25 02:58:44;;;;;;;2.23;1.50;;;;;;;21.69;100.00;101681.63;2080060;28;20288;-68
2023/09/25 02:59:44;;;;;;;2.00;1.60;;;;;;;21.67;100.00;101680.50;2080149;28;20579;-68
2023/09/25 03:00:47;;;;;;;2.40;1.70;;;;;;;21.66;100.00;101678.97;2079640;28;20201;-68
2023/09/25 03:01:48;;;;;;;5.17;1.70;;;;;;;21.65;100.00;101674.59;2081804;28;20200;-68
2023/09/25 03:02:48;;;;;;;2.43;1.53;;;;;;;21.69;100.00;101687.25;2081917;28;20188;-68
2023/09/25 03:03:49;;;;;;;2.07;1.53;;;;;;;21.70;100.00;101688.06;2081514;28;20180;-68
2023/09/25 03:04:49;;;;;;;2.97;1.97;;;;;;;21.71;100.00;101686.78;2082198;28;20655;-68
2023/09/25 03:05:49;;;;;;;1.97;1.70;;;;;;;21.68;100.00;101702.63;2081784;28;20181;-68
2023/09/25 03:06:50;;;;;;;4.30;1.70;;;;;;;21.65;100.00;101697.16;2081621;28;20789;-68
2023/09/25 03:07:51;;;;;;;4.80;1.97;;;;;;;21.63;100.00;101697.63;2081731;28;20185;-68
2023/09/25 03:08:51;;;;;;;7.57;2.00;;;;;;;21.61;100.00;101697.34;2081554;28;20228;-68
2023/09/25 03:09:52;;;;;;;3.83;1.50;;;;;;;21.62;100.00;101701.72;2081660;28;20658;-68
2023/09/25 03:10:52;;;;;;;2.30;1.60;;;;;;;21.60;100.00;101695.75;2081495;28;20181;-68
2023/09/25 03:11:53;;;;;;;2.90;1.67;;;;;;;21.61;100.00;101703.00;2081669;28;20268;-68
2023/09/25 03:12:53;;;;;;;3.37;1.90;;;;;;;21.58;100.00;101698.31;2082081;28;20185;-68
2023/09/25 03:13:54;;;;;;;3.00;1.77;;;;;;;21.60;100.00;101707.06;2081563;28;20215;-68
2023/09/25 03:14:54;;;;;;;2.40;1.43;;;;;;;21.60;100.00;101707.06;2081348;28;20650;-68
2023/09/25 03:15:54;;;;;;;2.27;1.40;;;;;;;21.58;100.00;101703.94;2081153;28;20193;-68
2023/09/25 03:16:55;;;;;;;2.20;1.70;;;;;;;21.54;100.00;101700.53;2081477;28;20197;-68
2023/09/25 03:17:55;;;;;;;2.43;1.77;;;;;;;21.60;100.00;101709.88;2081281;28;20200;-68
2023/09/25 03:18:56;;;;;;;1.90;1.47;;;;;;;21.60;100.00;101714.75;2081759;28;20185;-68
2023/09/25 03:19:56;;;;;;;2.57;1.53;;;;;;;21.55;100.00;101707.72;2081451;28;20195;-68
2023/09/25 03:21:07;;;;;;;2.43;1.70;;;;;;;21.60;100.00;101715.50;2081886;28;20192;-68
2023/09/25 03:22:07;;;;;;;2.03;1.57;;;;;;;21.61;100.00;101717.09;2073863;28;20174;-68
2023/09/25 03:23:09;;;;;;;2.87;1.50;;;;;;;21.59;100.00;101724.47;2081795;28;20280;-68
2023/09/25 03:24:10;;;;;;;3.50;1.80;;;;;;;21.61;100.00;101731.19;2080986;28;20207;-68
2023/09/25 03:25:12;;;;;;;3.47;1.80;;;;;;;21.61;100.00;101727.59;2081809;28;20643;-68
2023/09/25 03:26:19;;;;;;;4.30;1.50;;;;;;;21.58;100.00;101737.78;2081311;28;20662;-68
2023/09/25 03:27:19;;;;;;;4.27;1.80;;;;;;;21.58;100.00;101737.78;2081689;28;20193;-68
2023/09/25 03:28:20;;;;;;;2.67;1.50;;;;;;;21.59;100.00;101744.22;2081342;28;20200;-68
2023/09/25 03:29:20;;;;;;;4.03;1.47;;;;;;;21.39;100.00;101713.81;2080851;28;20579;-69
2023/09/25 03:30:21;;;;;;;2.10;1.50;;;;;;;21.58;100.00;101743.44;2081284;28;20251;-69
2023/09/25 03:31:21;;;;;;;2.60;1.50;;;;;;;21.58;100.00;101740.63;2082143;28;20587;-69
2023/09/25 03:32:22;;;;;;;3.33;1.80;;;;;;;21.59;100.00;101744.22;2080651;28;20196;-69
2023/09/25 03:33:27;;;;;;;2.30;1.70;;;;;;;21.58;100.00;101751.91;2081561;28;20650;-68
2023/09/25 03:34:27;;;;;;;2.33;1.53;;;;;;;21.60;100.00;101754.25;2081482;28;20197;-68
2023/09/25 03:35:28;;;;;;;2.67;1.70;;;;;;;21.59;100.00;101755.50;2081608;28;20181;-68
2023/09/25 03:36:28;;;;;;;3.13;1.67;;;;;;;21.60;100.00;101757.81;2081318;28;20247;-68
2023/09/25 03:37:29;;;;;;;3.30;1.63;;;;;;;21.59;100.00;101756.28;2079387;28;20169;-68
2023/09/25 03:38:30;;;;;;;2.37;1.70;;;;;;;21.59;100.00;101750.63;2073920;28;20248;-68
2023/09/25 03:39:31;;;;;;;2.47;1.40;;;;;;;21.60;100.00;101763.47;2082080;28;20177;-68
2023/09/25 03:40:31;;;;;;;1.87;1.60;;;;;;;21.59;100.00;101763.97;2079617;28;20658;-68
2023/09/25 03:41:32;;;;;;;2.17;1.43;;;;;;;21.58;100.00;101753.94;2081258;28;20205;-69
2023/09/25 03:42:33;;;;;;;3.57;1.40;;;;;;;21.57;100.00;101753.16;2080911;28;20216;-69
2023/09/25 03:43:34;;;;;;;2.80;1.67;;;;;;;21.32;100.00;101716.19;2081045;28;20208;-69
2023/09/25 03:44:34;;;;;;;2.57;1.60;;;;;;;21.57;100.00;101763.66;2081239;28;20200;-69
2023/09/25 03:45:35;;;;;;;2.47;1.50;;;;;;;21.57;100.00;101764.44;2081367;28;20180;-69
2023/09/25 03:46:36;;;;;;;5.23;1.80;;;;;;;21.28;100.00;101713.56;2081132;28;20231;-69
2023/09/25 03:47:37;;;;;;;2.50;1.60;;;;;;;21.36;100.00;101737.34;2081130;28;20260;-69
2023/09/25 03:48:37;;;;;;;4.00;1.70;;;;;;;21.59;100.00;101769.63;2073462;28;20173;-69
2023/09/25 03:49:39;;;;;;;2.40;1.70;;;;;;;21.51;100.00;101754.31;2080541;28;20197;-69
2023/09/25 03:50:39;;;;;;;5.40;1.80;;;;;;;21.57;100.00;101764.44;2081186;28;20740;-69
2023/09/25 03:51:40;;;;;;;2.93;1.80;;;;;;;21.58;100.00;101768.03;2081490;28;20632;-69
2023/09/25 03:52:40;;;;;;;3.30;2.00;;;;;;;21.59;100.00;101773.19;2081221;28;20185;-69
2023/09/25 03:53:41;;;;;;;3.47;1.83;;;;;;;21.59;100.00;101772.44;2081546;28;20600;-69
2023/09/25 03:54:41;;;;;;;2.77;1.60;;;;;;;21.58;100.00;101776.50;2080986;28;20180;-69
2023/09/25 03:55:42;;;;;;;1.20;0.90;;;;;;;21.57;100.00;101777.75;2080993;28;20177;-64
2023/09/25 03:56:43;;;;;;;1.40;1.10;;;;;;;21.68;100.00;101767.53;2081527;28;20184;-62
2023/09/25 03:57:43;;;;;;;1.30;1.00;;;;;;;21.89;100.00;101769.25;2078637;28;20543;-65
2023/09/25 03:58:44;;;;;;;3.20;1.30;;;;;;;21.93;100.00;101767.00;2080652;28;20275;-63
2023/09/25 03:59:44;;;;;;;5.67;1.50;;;;;;;21.89;100.00;101763.59;2080631;28;20587;-61
2023/09/25 04:00:45;;;;;;;2.03;1.50;;;;;;;21.79;100.00;101744.38;2076870;28;20185;-61
2023/09/25 04:01:45;;;;;;;4.40;1.70;;;;;;;21.93;100.00;101769.03;2078113;28;20697;-61
2023/09/25 04:02:46;;;;;;;1.87;1.50;;;;;;;21.97;100.00;101778.13;2079598;28;20327;-62
2023/09/25 04:03:47;;;;;;;3.33;1.70;;;;;;;22.06;100.00;101778.03;2081488;28;20181;-61
2023/09/25 04:04:47;;;;;;;3.60;1.87;;;;;;;22.08;100.00;101773.47;2081623;28;20192;-61
2023/09/25 04:05:47;;;;;;;2.87;1.87;;;;;;;22.14;100.00;101779.19;2079908;28;20205;-61
2023/09/25 04:06:48;;;;;;;2.20;1.60;;;;;;;22.17;100.00;101779.03;2080063;28;20193;-61
2023/09/25 04:07:48;;;;;;;2.20;1.70;;;;;;;22.19;100.00;101778.53;2078559;28;20197;-61
2023/09/25 04:08:50;;;;;;;4.07;1.77;;;;;;;22.28;100.00;101781.28;2076717;28;20672;-61
2023/09/25 04:09:50;;;;;;;3.07;1.87;;;;;;;22.43;100.00;101780.03;2077878;28;20182;-61
2023/09/25 04:10:50;;;;;;;2.47;1.83;;;;;;;22.58;100.00;101786.50;2079623;28;20185;-62
2023/09/25 04:11:51;;;;;;;2.70;1.80;;;;;;;22.71;100.00;101786.16;2072982;28;20699;-61
2023/09/25 04:12:51;;;;;;;1.77;1.43;;;;;;;22.83;100.00;101782.28;2081764;28;21536;-61
2023/09/25 04:13:52;;;;;;;2.57;1.60;;;;;;;22.95;100.00;101790.44;2081235;28;20238;-61
2023/09/25 04:14:53;;;;;;;3.03;1.67;;;;;;;23.03;100.00;101788.75;2077658;28;20198;-61
2023/09/25 04:15:54;;;;;;;2.90;1.60;;;;;;;23.08;100.00;101790.91;2080990;28;20276;-61
2023/09/25 04:16:55;;;;;;;2.70;1.60;;;;;;;23.14;100.00;101788.16;2081233;28;20284;-61
2023/09/25 04:17:57;;;;;;;2.40;1.70;;;;;;;23.26;100.00;101781.41;2081001;28;20186;-61
2023/09/25 04:18:58;;;;;;;3.80;1.70;;;;;;;23.31;100.00;101778.69;2081499;28;20180;-61
2023/09/25 04:19:59;;;;;;;4.10;1.60;;;;;;;23.37;100.00;101787.22;2082134;28;20176;-60
2023/09/25 04:21:02;;;;;;;3.27;1.70;;;;;;;23.43;100.00;101785.28;2082246;28;20188;-60
2023/09/25 04:22:06;;;;;;;1.53;1.30;;;;;;;23.48;100.00;101785.34;2081433;28;20184;-60
2023/09/25 04:23:08;;;;;;;2.00;1.53;;;;;;;23.53;100.00;101786.69;2081302;28;20287;-60
2023/09/25 04:24:11;;;;;;;2.50;1.70;;;;;;;23.60;100.00;101780.63;2080940;28;20631;-63
2023/09/25 04:25:19;;;;;;;2.00;1.47;;;;;;;23.29;100.00;101741.63;2080303;28;20215;-62
2023/09/25 04:26:19;;;;;;;3.23;1.73;;;;;;;23.60;100.00;101787.03;2080452;28;20285;-61
2023/09/25 04:27:20;;;;;;;2.83;1.70;;;;;;;23.67;100.00;101789.47;2080773;28;20215;-61
2023/09/25 04:28:20;;;;;;;2.63;1.60;;;;;;;23.71;100.00;101787.22;2077249;28;20212;-62
2023/09/25 04:29:21;;;;;;;1.90;1.30;;;;;;;23.74;100.00;101791.09;2080625;28;20714;-63
2023/09/25 04:30:23;;;;;;;2.60;1.57;;;;;;;23.81;100.00;101796.31;2079078;28;20200;-68
2023/09/25 04:31:23;;;;;;;2.43;1.70;;;;;;;23.77;100.00;101790.09;2080669;28;20694;-67
2023/09/25 04:32:24;;;;;;;4.43;1.73;;;;;;;23.54;100.00;101762.78;2075054;28;20702;-68
2023/09/25 04:33:24;;;;;;;3.00;1.80;;;;;;;23.66;100.00;101787.91;2076764;28;20279;-67
2023/09/25 04:34:25;;;;;;;3.03;1.87;;;;;;;23.47;100.00;101763.97;2076951;28;20189;-68
2023/09/25 04:35:25;;;;;;;3.13;1.70;;;;;;;23.54;100.00;101786.19;2076844;28;20193;-70
2023/09/25 04:36:26;;;;;;;2.00;1.50;;;;;;;23.45;100.00;101794.03;2072274;28;20185;-69
2023/09/25 04:37:26;;;;;;;3.23;1.47;;;;;;;23.40;100.00;101787.06;2083524;28;20184;-68
2023/09/25 04:38:30;;;;;;;2.13;1.43;;;;;;;23.35;100.00;101787.75;2076975;28;20181;-67
2023/09/25 04:39:32;;;;;;;3.00;1.57;;;;;;;23.31;100.00;101792.03;2071397;28;20181;-67
2023/09/25 04:40:33;;;;;;;4.03;1.63;;;;;;;23.30;100.00;101790.47;2079127;28;20690;-67